sensor_id;sensor_type;location;lat;lon;timestamp;pressure;altitude;pressure_sealevel;temperature;humidity
72414;BME280;60995;52.154;4.498;2024-03-23T00:53:17;101034.66;;;7.25;100.00
72414;BME280;60995;52.154;4.498;2024-03-23T00:55:33;101026.03;;;7.20;100.00
72414;BME280;60995;52.154;4.498;2024-03-23T00:57:50;101018.28;;;7.16;100.00
72414;BME280;60995;52.154;4.498;2024-03-23T01:00:06;101006.31;;;7.20;100.00
72414;BME280;60995;52.154;4.498;2024-03-23T01:02:26;100998.44;;;7.04;100.00
72414;BME280;60995;52.154;4.498;2024-03-23T01:04:42;100990.91;;;6.96;100.00
72414;BME280;60995;52.154;4.498;2024-03-23T01:06:58;100977.63;;;6.93;100.00
72414;BME280;60995;52.154;4.498;2024-03-23T01:09:14;100969.31;;;6.96;100.00
72414;BME280;60995;52.154;4.498;2024-03-23T01:11:30;100952.81;;;7.01;100.00
72414;BME280;60995;52.154;4.498;2024-03-23T01:13:47;100938.47;;;7.00;100.00
72414;BME280;60995;52.154;4.498;2024-03-23T01:16:03;100924.19;;;7.11;100.00
72414;BME280;60995;52.154;4.498;2024-03-23T01:18:20;100913.78;;;7.18;100.00
72414;BME280;60995;52.154;4.498;2024-03-23T01:20:37;100913.78;;;7.18;100.00
72414;BME280;60995;52.154;4.498;2024-03-23T01:22:54;100909.88;;;7.22;100.00
72414;BME280;60995;52.154;4.498;2024-03-23T01:25:10;100900.00;;;7.09;100.00
72414;BME280;60995;52.154;4.498;2024-03-23T01:27:26;100910.13;;;7.19;100.00
72414;BME280;60995;52.154;4.498;2024-03-23T01:29:43;100909.03;;;7.21;100.00
72414;BME280;60995;52.154;4.498;2024-03-23T01:31:59;100921.75;;;7.19;100.00
72414;BME280;60995;52.154;4.498;2024-03-23T01:34:15;100919.94;;;7.20;100.00
72414;BME280;60995;52.154;4.498;2024-03-23T01:36:31;100927.16;;;7.19;100.00
72414;BME280;60995;52.154;4.498;2024-03-23T01:38:48;100921.13;;;7.16;100.00
72414;BME280;60995;52.154;4.498;2024-03-23T01:41:04;100915.72;;;7.16;100.00
72414;BME280;60995;52.154;4.498;2024-03-23T01:43:21;100913.78;;;7.18;100.00
72414;BME280;60995;52.154;4.498;2024-03-23T01:45:38;100892.59;;;7.24;100.00
72414;BME280;60995;52.154;4.498;2024-03-23T01:47:54;100896.69;;;7.30;100.00
72414;BME280;60995;52.154;4.498;2024-03-23T01:50:10;100909.69;;;7.25;100.00
72414;BME280;60995;52.154;4.498;2024-03-23T01:52:27;100906.03;;;7.13;100.00
72414;BME280;60995;52.154;4.498;2024-03-23T01:54:44;100864.97;;;7.21;100.00
72414;BME280;60995;52.154;4.498;2024-03-23T01:57:01;100868.25;;;7.13;100.00
72414;BME280;60995;52.154;4.498;2024-03-23T01:59:17;100870.22;;;7.11;100.00
72414;BME280;60995;52.154;4.498;2024-03-23T02:01:36;100883.13;;;7.19;100.00
72414;BME280;60995;52.154;4.498;2024-03-23T02:03:53;100882.03;;;7.21;100.00
72414;BME280;60995;52.154;4.498;2024-03-23T02:06:09;100891.50;;;7.27;100.00
72414;BME280;60995;52.154;4.498;2024-03-23T02:08:25;100893.47;;;7.25;100.00
72414;BME280;60995;52.154;4.498;2024-03-23T02:10:42;100883.41;;;7.27;100.00
72414;BME280;60995;52.154;4.498;2024-03-23T02:12:58;100881.16;;;7.21;100.00
72414;BME280;60995;52.154;4.498;2024-03-23T02:15:14;100880.97;;;7.24;100.00
72414;BME280;60995;52.154;4.498;2024-03-23T02:17:33;100902.03;;;7.19;100.00
72414;BME280;60995;52.154;4.498;2024-03-23T02:19:50;100899.31;;;7.19;100.00
72414;BME280;60995;52.154;4.498;2024-03-23T02:22:07;100898.88;;;7.25;100.00
72414;BME280;60995;52.154;4.498;2024-03-23T02:24:23;100905.69;;;7.18;100.00
72414;BME280;60995;52.154;4.498;2024-03-23T02:26:39;100895.88;;;7.17;100.00
72414;BME280;60995;52.154;4.498;2024-03-23T02:28:55;100892.66;;;7.11;100.00
72414;BME280;60995;52.154;4.498;2024-03-23T02:31:12;100912.06;;;7.17;100.00
72414;BME280;60995;52.154;4.498;2024-03-23T02:33:29;100903.25;;;7.15;100.00
72414;BME280;60995;52.154;4.498;2024-03-23T02:35:45;100888.59;;;7.06;100.00
72414;BME280;60995;52.154;4.498;2024-03-23T02:38:03;100878.22;;;7.00;100.00
72414;BME280;60995;52.154;4.498;2024-03-23T02:40:20;100878.34;;;6.98;100.00
72414;BME280;60995;52.154;4.498;2024-03-23T02:42:36;100879.56;;;6.94;100.00
72414;BME280;60995;52.154;4.498;2024-03-23T02:44:53;100868.81;;;6.81;100.00
72414;BME280;60995;52.154;4.498;2024-03-23T02:47:10;100870.78;;;6.66;100.00
72414;BME280;60995;52.154;4.498;2024-03-23T02:49:26;100872.75;;;6.64;100.00
72414;BME280;60995;52.154;4.498;2024-03-23T02:51:43;100863.34;;;6.57;100.00
72414;BME280;60995;52.154;4.498;2024-03-23T02:54:01;100850.94;;;6.67;100.00
72414;BME280;60995;52.154;4.498;2024-03-23T02:56:17;100860.16;;;6.89;100.00
72414;BME280;60995;52.154;4.498;2024-03-23T02:58:33;100849.53;;;6.99;100.00
72414;BME280;60995;52.154;4.498;2024-03-23T03:00:50;100853.19;;;7.10;100.00
72414;BME280;60995;52.154;4.498;2024-03-23T03:03:06;100855.63;;;7.14;100.00
72414;BME280;60995;52.154;4.498;2024-03-23T03:05:24;100858.91;;;7.30;100.00
72414;BME280;60995;52.154;4.498;2024-03-23T03:07:40;100850.00;;;7.41;100.00
72414;BME280;60995;52.154;4.498;2024-03-23T03:09:57;100844.81;;;7.38;100.00
72414;BME280;60995;52.154;4.498;2024-03-23T03:12:13;100840.56;;;7.47;100.00
72414;BME280;60995;52.154;4.498;2024-03-23T03:14:29;100842.59;;;7.67;100.00
72414;BME280;60995;52.154;4.498;2024-03-23T03:16:45;100849.72;;;7.68;100.00
72414;BME280;60995;52.154;4.498;2024-03-23T03:19:02;100846.13;;;7.56;100.00
72414;BME280;60995;52.154;4.498;2024-03-23T03:21:18;100856.28;;;7.53;100.00
72414;BME280;60995;52.154;4.498;2024-03-23T03:23:35;100859.06;;;7.40;100.00
72414;BME280;60995;52.154;4.498;2024-03-23T03:25:51;100856.69;;;7.35;100.00
72414;BME280;60995;52.154;4.498;2024-03-23T03:28:07;100871.41;;;7.31;100.00
72414;BME280;60995;52.154;4.498;2024-03-23T03:30:23;100869.19;;;7.25;100.00
72414;BME280;60995;52.154;4.498;2024-03-23T03:32:40;100867.91;;;7.18;100.00
72414;BME280;60995;52.154;4.498;2024-03-23T03:34:56;100862.25;;;7.09;100.00
72414;BME280;60995;52.154;4.498;2024-03-23T03:37:12;100857.81;;;7.08;100.00
72414;BME280;60995;52.154;4.498;2024-03-23T03:39:29;100853.19;;;7.10;100.00
72414;BME280;60995;52.154;4.498;2024-03-23T03:41:45;100848.75;;;7.09;100.00
72414;BME280;60995;52.154;4.498;2024-03-23T03:44:01;100845.53;;;7.04;100.00
72414;BME280;60995;52.154;4.498;2024-03-23T03:46:18;100840.81;;;6.95;100.00
72414;BME280;60995;52.154;4.498;2024-03-23T03:48:34;100836.41;;;6.94;100.00
72414;BME280;60995;52.154;4.498;2024-03-23T03:50:51;100830.25;;;6.92;100.00
72414;BME280;60995;52.154;4.498;2024-03-23T03:53:08;100835.13;;;6.87;100.00
72414;BME280;60995;52.154;4.498;2024-03-23T03:55:25;100824.56;;;6.84;100.00
72414;BME280;60995;52.154;4.498;2024-03-23T03:57:41;100820.53;;;6.89;100.00
72414;BME280;60995;52.154;4.498;2024-03-23T03:59:57;100815.38;;;6.86;100.00
72414;BME280;60995;52.154;4.498;2024-03-23T04:02:14;100809.25;;;6.84;100.00
72414;BME280;60995;52.154;4.498;2024-03-23T04:04:30;100818.41;;;6.82;100.00
72414;BME280;60995;52.154;4.498;2024-03-23T04:06:46;100803.84;;;6.84;100.00
72414;BME280;60995;52.154;4.498;2024-03-23T04:09:02;100804.19;;;6.79;100.00
72414;BME280;60995;52.154;4.498;2024-03-23T04:11:19;100804.78;;;6.72;100.00
72414;BME280;60995;52.154;4.498;2024-03-23T04:13:35;100799.78;;;6.78;100.00
72414;BME280;60995;52.154;4.498;2024-03-23T04:15:55;100796.56;;;6.73;100.00
72414;BME280;60995;52.154;4.498;2024-03-23T04:18:11;100794.31;;;6.67;100.00
72414;BME280;60995;52.154;4.498;2024-03-23T04:20:29;100793.59;;;6.65;100.00
72414;BME280;60995;52.154;4.498;2024-03-23T04:22:45;100784.03;;;6.72;100.00
72414;BME280;60995;52.154;4.498;2024-03-23T04:25:01;100786.00;;;6.70;100.00
72414;BME280;60995;52.154;4.498;2024-03-23T04:27:23;100782.22;;;6.73;100.00
72414;BME280;60995;52.154;4.498;2024-03-23T04:29:39;100778.66;;;6.72;100.00
72414;BME280;60995;52.154;4.498;2024-03-23T04:31:55;100778.19;;;6.78;100.00
72414;BME280;60995;52.154;4.498;2024-03-23T04:34:13;100782.84;;;6.76;100.00
72414;BME280;60995;52.154;4.498;2024-03-23T04:36:29;100778.84;;;6.82;100.00
72414;BME280;60995;52.154;4.498;2024-03-23T04:38:46;100781.19;;;6.87;100.00
72414;BME280;60995;52.154;4.498;2024-03-23T04:41:05;100771.28;;;6.87;100.00
72414;BME280;60995;52.154;4.498;2024-03-23T04:43:22;100776.81;;;6.97;100.00
72414;BME280;60995;52.154;4.498;2024-03-23T04:45:38;100768.25;;;7.03;100.00
72414;BME280;60995;52.154;4.498;2024-03-23T04:47:54;100772.50;;;6.94;100.00
72414;BME280;60995;52.154;4.498;2024-03-23T04:50:11;100762.34;;;6.98;100.00
72414;BME280;60995;52.154;4.498;2024-03-23T04:52:27;100759.84;;;7.08;100.00
72414;BME280;60995;52.154;4.498;2024-03-23T04:54:44;100761.44;;;7.10;100.00
72414;BME280;60995;52.154;4.498;2024-03-23T04:57:01;100767.59;;;7.24;100.00
72414;BME280;60995;52.154;4.498;2024-03-23T04:59:17;100758.56;;;7.36;100.00
72414;BME280;60995;52.154;4.498;2024-03-23T05:01:34;100765.41;;;7.29;100.00
72414;BME280;60995;52.154;4.498;2024-03-23T05:03:50;100761.25;;;7.36;100.00
72414;BME280;60995;52.154;4.498;2024-03-23T05:06:08;100763.00;;;7.49;100.00
72414;BME280;60995;52.154;4.498;2024-03-23T05:08:24;100775.03;;;7.44;100.00
72414;BME280;60995;52.154;4.498;2024-03-23T05:10:40;100777.16;;;7.52;100.00
72414;BME280;60995;52.154;4.498;2024-03-23T05:12:57;100787.94;;;7.52;100.00
72414;BME280;60995;52.154;4.498;2024-03-23T05:15:13;100789.63;;;7.53;100.00
72414;BME280;60995;52.154;4.498;2024-03-23T05:17:31;100794.91;;;7.43;100.00
72414;BME280;60995;52.154;4.498;2024-03-23T05:19:48;100789.50;;;7.43;100.00
72414;BME280;60995;52.154;4.498;2024-03-23T05:22:04;100804.22;;;7.39;100.00
72414;BME280;60995;52.154;4.498;2024-03-23T05:24:20;100802.69;;;7.24;100.00
72414;BME280;60995;52.154;4.498;2024-03-23T05:26:37;100806.47;;;7.21;100.00
72414;BME280;60995;52.154;4.498;2024-03-23T05:28:56;100805.09;;;7.16;100.00
72414;BME280;60995;52.154;4.498;2024-03-23T05:31:12;100800.34;;;7.19;100.00
72414;BME280;60995;52.154;4.498;2024-03-23T05:33:28;100800.72;;;7.26;100.00
72414;BME280;60995;52.154;4.498;2024-03-23T05:35:45;100792.75;;;7.24;100.00
72414;BME280;60995;52.154;4.498;2024-03-23T05:38:01;100789.19;;;7.24;100.00
72414;BME280;60995;52.154;4.498;2024-03-23T05:40:18;100796.03;;;7.17;100.00
72414;BME280;60995;52.154;4.498;2024-03-23T05:42:34;100787.28;;;7.13;100.00
72414;BME280;60995;52.154;4.498;2024-03-23T05:44:52;100782.06;;;7.23;100.00
72414;BME280;60995;52.154;4.498;2024-03-23T05:47:08;100774.94;;;7.22;100.00
72414;BME280;60995;52.154;4.498;2024-03-23T05:49:24;100782.06;;;7.23;100.00
72414;BME280;60995;52.154;4.498;2024-03-23T05:51:41;100771.28;;;7.23;100.00
72414;BME280;60995;52.154;4.498;2024-03-23T05:53:57;100772.13;;;7.23;100.00
72414;BME280;60995;52.154;4.498;2024-03-23T05:56:13;100765.50;;;7.16;100.00
72414;BME280;60995;52.154;4.498;2024-03-23T05:58:30;100770.66;;;7.19;100.00
72414;BME280;60995;52.154;4.498;2024-03-23T06:00:47;100776.94;;;7.20;100.00
72414;BME280;60995;52.154;4.498;2024-03-23T06:03:03;100779.63;;;7.20;100.00
72414;BME280;60995;52.154;4.498;2024-03-23T06:05:20;100776.72;;;7.34;100.00
72414;BME280;60995;52.154;4.498;2024-03-23T06:07:36;100770.09;;;7.38;100.00
72414;BME280;60995;52.154;4.498;2024-03-23T06:09:52;100772.69;;;7.40;100.00
72414;BME280;60995;52.154;4.498;2024-03-23T06:12:09;100776.47;;;7.37;100.00
72414;BME280;60995;52.154;4.498;2024-03-23T06:14:25;100768.75;;;7.44;100.00
72414;BME280;60995;52.154;4.498;2024-03-23T06:16:41;100764.84;;;7.48;100.00
72414;BME280;60995;52.154;4.498;2024-03-23T06:18:57;100767.44;;;7.50;100.00
72414;BME280;60995;52.154;4.498;2024-03-23T06:21:14;100770.88;;;7.52;100.00
72414;BME280;60995;52.154;4.498;2024-03-23T06:23:30;100775.53;;;7.50;100.00
72414;BME280;60995;52.154;4.498;2024-03-23T06:25:48;100774.31;;;7.54;100.00
72414;BME280;60995;52.154;4.498;2024-03-23T06:28:04;100784.16;;;7.55;100.00
72414;BME280;60995;52.154;4.498;2024-03-23T06:30:21;100767.50;;;8.18;100.00
72414;BME280;60995;52.154;4.498;2024-03-23T06:32:37;100770.53;;;9.02;100.00
72414;BME280;60995;52.154;4.498;2024-03-23T06:34:54;100800.50;;;8.67;100.00
72414;BME280;60995;52.154;4.498;2024-03-23T06:37:11;100806.31;;;8.28;100.00
72414;BME280;60995;52.154;4.498;2024-03-23T06:39:27;100808.75;;;7.97;100.00
72414;BME280;60995;52.154;4.498;2024-03-23T06:41:52;100805.56;;;7.92;100.00
72414;BME280;60995;52.154;4.498;2024-03-23T06:44:09;100790.53;;;8.44;100.00
72414;BME280;60995;52.154;4.498;2024-03-23T06:46:26;100771.47;;;9.76;100.00
72414;BME280;60995;52.154;4.498;2024-03-23T06:48:45;100803.75;;;10.91;100.00
72414;BME280;60995;52.154;4.498;2024-03-23T06:51:01;100807.69;;;12.43;100.00
72414;BME280;60995;52.154;4.498;2024-03-23T06:53:19;100845.28;;;12.10;100.00
72414;BME280;60995;52.154;4.498;2024-03-23T06:55:35;100856.78;;;11.84;100.00
72414;BME280;60995;52.154;4.498;2024-03-23T06:57:53;100880.81;;;11.20;100.00
72414;BME280;60995;52.154;4.498;2024-03-23T07:00:10;100884.78;;;12.23;100.00
72414;BME280;60995;52.154;4.498;2024-03-23T07:02:27;100922.53;;;11.29;100.00
72414;BME280;60995;52.154;4.498;2024-03-23T07:04:44;100931.94;;;10.22;100.00
72414;BME280;60995;52.154;4.498;2024-03-23T07:07:00;100926.66;;;9.99;100.00
72414;BME280;60995;52.154;4.498;2024-03-23T07:09:19;100927.94;;;10.37;100.00
72414;BME280;60995;52.154;4.498;2024-03-23T07:11:41;100935.84;;;9.10;100.00
72414;BME280;60995;52.154;4.498;2024-03-23T07:13:57;100923.38;;;9.63;100.00
72414;BME280;60995;52.154;4.498;2024-03-23T07:16:13;100923.94;;;9.46;100.00
72414;BME280;60995;52.154;4.498;2024-03-23T07:18:29;100928.22;;;9.04;100.00
72414;BME280;60995;52.154;4.498;2024-03-23T07:20:56;100920.88;;;8.61;100.00
72414;BME280;60995;52.154;4.498;2024-03-23T07:23:13;100925.25;;;8.39;100.00
72414;BME280;60995;52.154;4.498;2024-03-23T07:25:30;100911.06;;;8.49;100.00
72414;BME280;60995;52.154;4.498;2024-03-23T07:27:47;100905.84;;;9.02;100.00
72414;BME280;60995;52.154;4.498;2024-03-23T07:30:04;100877.50;;;10.56;100.00
72414;BME280;60995;52.154;4.498;2024-03-23T07:32:21;100891.97;;;12.62;100.00
72414;BME280;60995;52.154;4.498;2024-03-23T07:34:37;100913.72;;;11.66;100.00
72414;BME280;60995;52.154;4.498;2024-03-23T07:36:54;100930.56;;;11.30;100.00
72414;BME280;60995;52.154;4.498;2024-03-23T07:39:10;100935.81;;;11.12;100.00
72414;BME280;60995;52.154;4.498;2024-03-23T07:41:27;100948.81;;;10.04;100.00
72414;BME280;60995;52.154;4.498;2024-03-23T07:43:43;100946.94;;;9.51;100.00
72414;BME280;60995;52.154;4.498;2024-03-23T07:46:01;100947.22;;;9.37;100.00
72414;BME280;60995;52.154;4.498;2024-03-23T07:48:17;100940.22;;;10.41;100.00
72414;BME280;60995;52.154;4.498;2024-03-23T07:50:33;100920.41;;;12.30;100.00
72414;BME280;60995;52.154;4.498;2024-03-23T07:52:49;100929.84;;;13.93;100.00
72414;BME280;60995;52.154;4.498;2024-03-23T07:55:06;100946.75;;;12.77;100.00
72414;BME280;60995;52.154;4.498;2024-03-23T07:57:23;100952.94;;;11.83;100.00
72414;BME280;60995;52.154;4.498;2024-03-23T07:59:39;100951.16;;;12.88;100.00
72414;BME280;60995;52.154;4.498;2024-03-23T08:01:55;100940.88;;;12.82;100.00
72414;BME280;60995;52.154;4.498;2024-03-23T08:04:11;100940.19;;;14.07;100.00
72414;BME280;60995;52.154;4.498;2024-03-23T08:06:28;100931.09;;;13.63;100.00
72414;BME280;60995;52.154;4.498;2024-03-23T08:08:45;100957.91;;;11.48;100.00
72414;BME280;60995;52.154;4.498;2024-03-23T08:11:02;100957.34;;;10.63;100.00
72414;BME280;60995;52.154;4.498;2024-03-23T08:13:21;100967.13;;;10.75;100.00
72414;BME280;60995;52.154;4.498;2024-03-23T08:15:37;100952.38;;;12.18;100.00
72414;BME280;60995;52.154;4.498;2024-03-23T08:17:53;100945.91;;;13.32;100.00
72414;BME280;60995;52.154;4.498;2024-03-23T08:20:11;100948.94;;;11.97;100.00
72414;BME280;60995;52.154;4.498;2024-03-23T08:22:28;100961.06;;;11.03;100.00
72414;BME280;60995;52.154;4.498;2024-03-23T08:24:44;100963.50;;;10.44;100.00
72414;BME280;60995;52.154;4.498;2024-03-23T08:27:00;100956.34;;;10.95;100.00
72414;BME280;60995;52.154;4.498;2024-03-23T08:29:17;100960.00;;;11.25;100.00
72414;BME280;60995;52.154;4.498;2024-03-23T08:31:33;100970.13;;;10.30;100.00
72414;BME280;60995;52.154;4.498;2024-03-23T08:33:49;100963.75;;;10.20;100.00
72414;BME280;60995;52.154;4.498;2024-03-23T08:36:07;100969.84;;;9.58;100.00
72414;BME280;60995;52.154;4.498;2024-03-23T08:38:25;100961.09;;;9.55;100.00
72414;BME280;60995;52.154;4.498;2024-03-23T08:40:42;100958.47;;;9.21;100.00
72414;BME280;60995;52.154;4.498;2024-03-23T08:42:58;100954.91;;;8.86;100.00
72414;BME280;60995;52.154;4.498;2024-03-23T08:45:15;100947.50;;;9.22;100.00
72414;BME280;60995;52.154;4.498;2024-03-23T08:47:34;100961.09;;;8.88;100.00
72414;BME280;60995;52.154;4.498;2024-03-23T08:49:51;100934.72;;;10.84;100.00
72414;BME280;60995;52.154;4.498;2024-03-23T08:52:07;100939.56;;;11.40;100.00
72414;BME280;60995;52.154;4.498;2024-03-23T08:54:24;100931.00;;;13.36;100.00
72414;BME280;60995;52.154;4.498;2024-03-23T08:56:42;100957.22;;;11.75;100.00
72414;BME280;60995;52.154;4.498;2024-03-23T08:58:58;100963.47;;;10.96;100.00
72414;BME280;60995;52.154;4.498;2024-03-23T09:01:15;100950.34;;;11.01;100.00
72414;BME280;60995;52.154;4.498;2024-03-23T09:03:31;100966.81;;;10.48;100.00
72414;BME280;60995;52.154;4.498;2024-03-23T09:05:47;100953.84;;;11.33;100.00
72414;BME280;60995;52.154;4.498;2024-03-23T09:08:04;100908.00;;;14.11;100.00
72414;BME280;60995;52.154;4.498;2024-03-23T09:10:20;100928.47;;;13.25;100.00
72414;BME280;60995;52.154;4.498;2024-03-23T09:12:38;100942.66;;;11.96;100.00
72414;BME280;60995;52.154;4.498;2024-03-23T09:14:54;100948.56;;;11.31;100.00
72414;BME280;60995;52.154;4.498;2024-03-23T09:17:10;100916.81;;;13.87;100.00
72414;BME280;60995;52.154;4.498;2024-03-23T09:19:28;100909.34;;;15.45;100.00
72414;BME280;60995;52.154;4.498;2024-03-23T09:21:45;100899.75;;;15.49;100.00
72414;BME280;60995;52.154;4.498;2024-03-23T09:24:01;100874.81;;;16.91;100.00
72414;BME280;60995;52.154;4.498;2024-03-23T09:26:17;100888.00;;;15.74;100.00
72414;BME280;60995;52.154;4.498;2024-03-23T09:28:34;100911.38;;;14.58;100.00
72414;BME280;60995;52.154;4.498;2024-03-23T09:30:50;100919.75;;;13.49;100.00
72414;BME280;60995;52.154;4.498;2024-03-23T09:33:07;100932.31;;;13.04;100.00
72414;BME280;60995;52.154;4.498;2024-03-23T09:35:24;100913.81;;;13.72;100.00
72414;BME280;60995;52.154;4.498;2024-03-23T09:37:40;100925.25;;;13.76;100.00
72414;BME280;60995;52.154;4.498;2024-03-23T09:39:56;100943.13;;;12.49;100.00
72414;BME280;60995;52.154;4.498;2024-03-23T09:42:12;100951.69;;;11.17;100.00
72414;BME280;60995;52.154;4.498;2024-03-23T09:44:30;100942.88;;;11.34;100.00
72414;BME280;60995;52.154;4.498;2024-03-23T09:46:46;100957.72;;;11.30;100.00
72414;BME280;60995;52.154;4.498;2024-03-23T09:49:03;100947.13;;;11.17;100.00
72414;BME280;60995;52.154;4.498;2024-03-23T09:51:20;100949.66;;;11.09;100.00
72414;BME280;60995;52.154;4.498;2024-03-23T09:53:37;100957.34;;;10.94;100.00
72414;BME280;60995;52.154;4.498;2024-03-23T09:55:53;100949.28;;;10.83;100.00
72414;BME280;60995;52.154;4.498;2024-03-23T09:58:16;100963.63;;;10.21;100.00
72414;BME280;60995;52.154;4.498;2024-03-23T10:00:34;100962.06;;;9.86;100.00
72414;BME280;60995;52.154;4.498;2024-03-23T10:02:55;100960.34;;;9.85;100.00
72414;BME280;60995;52.154;4.498;2024-03-23T10:05:23;100937.22;;;11.96;100.00
72414;BME280;60995;52.154;4.498;2024-03-23T10:07:40;100954.47;;;11.56;100.00
72414;BME280;60995;52.154;4.498;2024-03-23T10:09:57;100954.25;;;11.08;100.00
72414;BME280;60995;52.154;4.498;2024-03-23T10:12:15;100953.75;;;10.93;100.00
72414;BME280;60995;52.154;4.498;2024-03-23T10:14:33;100953.66;;;11.05;100.00
72414;BME280;60995;52.154;4.498;2024-03-23T10:16:49;100959.59;;;10.58;100.00
72414;BME280;60995;52.154;4.498;2024-03-23T10:19:06;100952.53;;;11.07;100.00
72414;BME280;60995;52.154;4.498;2024-03-23T10:21:26;100961.66;;;11.06;100.00
72414;BME280;60995;52.154;4.498;2024-03-23T10:23:44;100934.44;;;12.83;100.00
72414;BME280;60995;52.154;4.498;2024-03-23T10:26:17;100916.84;;;13.51;100.00
72414;BME280;60995;52.154;4.498;2024-03-23T10:28:35;100927.94;;;12.56;100.00
72414;BME280;60995;52.154;4.498;2024-03-23T10:30:51;100938.44;;;12.31;100.00
72414;BME280;60995;52.154;4.498;2024-03-23T10:33:08;100942.31;;;12.38;100.00
72414;BME280;60995;52.154;4.498;2024-03-23T10:35:26;100947.19;;;11.86;100.00
72414;BME280;60995;52.154;4.498;2024-03-23T10:37:42;100939.59;;;11.60;100.00
72414;BME280;60995;52.154;4.498;2024-03-23T10:39:59;100943.47;;;11.67;100.00
72414;BME280;60995;52.154;4.498;2024-03-23T10:42:15;100939.34;;;11.83;100.00
72414;BME280;60995;52.154;4.498;2024-03-23T10:44:33;100929.00;;;12.83;100.00
72414;BME280;60995;52.154;4.498;2024-03-23T10:46:50;100925.97;;;12.76;100.00
72414;BME280;60995;52.154;4.498;2024-03-23T10:49:06;100932.72;;;12.82;100.00
72414;BME280;60995;52.154;4.498;2024-03-23T10:51:22;100939.66;;;12.56;100.00
72414;BME280;60995;52.154;4.498;2024-03-23T10:53:39;100922.38;;;13.59;100.00
72414;BME280;60995;52.154;4.498;2024-03-23T10:55:56;100923.09;;;13.61;100.00
72414;BME280;60995;52.154;4.498;2024-03-23T10:58:13;100927.13;;;13.39;100.00
72414;BME280;60995;52.154;4.498;2024-03-23T11:00:29;100923.69;;;13.55;100.00
72414;BME280;60995;52.154;4.498;2024-03-23T11:02:46;100931.38;;;13.14;100.00
72414;BME280;60995;52.154;4.498;2024-03-23T11:07:49;100941.41;;;11.20;100.00
72414;BME280;60995;52.154;4.498;2024-03-23T11:10:27;100944.47;;;10.96;100.00
72414;BME280;60995;52.154;4.498;2024-03-23T11:12:46;100927.34;;;12.62;100.00
72414;BME280;60995;52.154;4.498;2024-03-23T11:15:10;100929.09;;;12.81;100.00
72414;BME280;60995;52.154;4.498;2024-03-23T11:17:28;100928.03;;;12.17;100.00
72414;BME280;60995;52.154;4.498;2024-03-23T11:19:44;100915.03;;;13.14;100.00
72414;BME280;60995;52.154;4.498;2024-03-23T11:22:12;100906.28;;;13.92;100.00
72414;BME280;60995;52.154;4.498;2024-03-23T11:24:29;100900.63;;;13.85;100.00
72414;BME280;60995;52.154;4.498;2024-03-23T11:26:45;100891.72;;;14.54;100.00
72414;BME280;60995;52.154;4.498;2024-03-23T11:29:12;100906.56;;;13.99;100.00
72414;BME280;60995;52.154;4.498;2024-03-23T11:31:29;100925.09;;;12.48;100.00
72414;BME280;60995;52.154;4.498;2024-03-23T11:33:46;100920.88;;;11.77;100.00
72414;BME280;60995;52.154;4.498;2024-03-23T11:36:03;100927.69;;;11.22;100.00
72414;BME280;60995;52.154;4.498;2024-03-23T11:38:19;100927.03;;;11.69;100.00
72414;BME280;60995;52.154;4.498;2024-03-23T11:40:37;100914.41;;;11.29;100.00
72414;BME280;60995;52.154;4.498;2024-03-23T11:42:57;100918.69;;;11.31;100.00
72414;BME280;60995;52.154;4.498;2024-03-23T11:45:18;100906.13;;;11.79;100.00
72414;BME280;60995;52.154;4.498;2024-03-23T11:47:34;100910.84;;;11.87;100.00
72414;BME280;60995;52.154;4.498;2024-03-23T11:49:50;100911.56;;;11.79;100.00
72414;BME280;60995;52.154;4.498;2024-03-23T11:52:08;100905.28;;;11.88;100.00
72414;BME280;60995;52.154;4.498;2024-03-23T11:54:25;100911.44;;;11.71;100.00
72414;BME280;60995;52.154;4.498;2024-03-23T11:59:33;100890.19;;;12.33;100.00
72414;BME280;60995;52.154;4.498;2024-03-23T12:01:52;100910.28;;;11.93;100.00
72414;BME280;60995;52.154;4.498;2024-03-23T12:04:09;100913.38;;;12.37;100.00
72414;BME280;60995;52.154;4.498;2024-03-23T12:06:25;100891.47;;;13.22;100.00
72414;BME280;60995;52.154;4.498;2024-03-23T12:08:42;100894.13;;;12.58;100.00
72414;BME280;60995;52.154;4.498;2024-03-23T12:13:29;100900.72;;;11.69;100.00
72414;BME280;60995;52.154;4.498;2024-03-23T12:15:47;100889.00;;;11.98;100.00
72414;BME280;60995;52.154;4.498;2024-03-23T12:18:10;100887.53;;;11.55;100.00
72414;BME280;60995;52.154;4.498;2024-03-23T12:20:26;100888.63;;;11.03;100.00
72414;BME280;60995;52.154;4.498;2024-03-23T12:22:43;100905.38;;;10.16;100.00
72414;BME280;60995;52.154;4.498;2024-03-23T12:25:01;100901.47;;;10.08;100.00
72414;BME280;60995;52.154;4.498;2024-03-23T12:27:17;100889.09;;;10.37;100.00
72414;BME280;60995;52.154;4.498;2024-03-23T12:29:34;100888.75;;;9.88;100.00
72414;BME280;60995;52.154;4.498;2024-03-23T12:31:50;100892.66;;;10.16;100.00
72414;BME280;60995;52.154;4.498;2024-03-23T12:34:06;100889.13;;;10.47;100.00
72414;BME280;60995;52.154;4.498;2024-03-23T12:36:23;100895.09;;;11.12;100.00
72414;BME280;60995;52.154;4.498;2024-03-23T12:38:39;100865.28;;;10.91;100.00
72414;BME280;60995;52.154;4.498;2024-03-23T12:40:56;100873.03;;;11.05;100.00
72414;BME280;60995;52.154;4.498;2024-03-23T12:43:12;100878.81;;;11.41;100.00
72414;BME280;60995;52.154;4.498;2024-03-23T12:45:28;100871.38;;;11.63;100.00
72414;BME280;60995;52.154;4.498;2024-03-23T12:47:44;100856.16;;;12.19;100.00
72414;BME280;60995;52.154;4.498;2024-03-23T12:50:01;100868.81;;;12.01;100.00
72414;BME280;60995;52.154;4.498;2024-03-23T12:52:18;100876.22;;;11.50;100.00